sensor_id;sensor_type;location;lat;lon;timestamp;temperature;humidity
20102;DHT22;10210;52.284;9.892;2022-10-16T00:00:40;18.40;99.90
20102;DHT22;10210;52.284;9.892;2022-10-16T00:03:08;18.40;99.90
20102;DHT22;10210;52.284;9.892;2022-10-16T00:05:40;18.40;99.90
20102;DHT22;10210;52.284;9.892;2022-10-16T00:08:07;18.40;99.90
20102;DHT22;10210;52.284;9.892;2022-10-16T00:10:34;18.30;99.90
20102;DHT22;10210;52.284;9.892;2022-10-16T00:13:01;18.30;99.90
20102;DHT22;10210;52.284;9.892;2022-10-16T00:15:27;18.30;99.90
20102;DHT22;10210;52.284;9.892;2022-10-16T00:17:54;18.30;99.90
20102;DHT22;10210;52.284;9.892;2022-10-16T00:20:20;18.20;99.90
20102;DHT22;10210;52.284;9.892;2022-10-16T00:22:45;18.20;99.90
20102;DHT22;10210;52.284;9.892;2022-10-16T00:25:11;18.20;99.90
20102;DHT22;10210;52.284;9.892;2022-10-16T00:27:37;18.20;99.90
20102;DHT22;10210;52.284;9.892;2022-10-16T00:30:03;18.20;99.90
20102;DHT22;10210;52.284;9.892;2022-10-16T00:32:29;18.10;99.90
20102;DHT22;10210;52.284;9.892;2022-10-16T00:34:54;18.10;99.90
20102;DHT22;10210;52.284;9.892;2022-10-16T00:37:20;18.10;99.90
20102;DHT22;10210;52.284;9.892;2022-10-16T00:39:46;18.10;99.90
20102;DHT22;10210;52.284;9.892;2022-10-16T00:42:16;18.00;99.90
20102;DHT22;10210;52.284;9.892;2022-10-16T00:47:35;18.00;99.90
20102;DHT22;10210;52.284;9.892;2022-10-16T00:50:16;18.00;99.90
20102;DHT22;10210;52.284;9.892;2022-10-16T00:52:48;18.00;99.90
20102;DHT22;10210;52.284;9.892;2022-10-16T00:55:17;18.00;99.90
20102;DHT22;10210;52.284;9.892;2022-10-16T00:57:44;18.00;99.90
20102;DHT22;10210;52.284;9.892;2022-10-16T01:00:13;18.00;99.90
20102;DHT22;10210;52.284;9.892;2022-10-16T01:02:41;18.00;99.90
20102;DHT22;10210;52.284;9.892;2022-10-16T01:05:08;18.00;99.90
20102;DHT22;10210;52.284;9.892;2022-10-16T01:07:58;17.90;99.90
20102;DHT22;10210;52.284;9.892;2022-10-16T01:10:39;17.90;99.90
20102;DHT22;10210;52.284;9.892;2022-10-16T01:13:12;17.90;99.90
20102;DHT22;10210;52.284;9.892;2022-10-16T01:16:08;17.90;99.90
20102;DHT22;10210;52.284;9.892;2022-10-16T01:18:46;17.90;99.90
20102;DHT22;10210;52.284;9.892;2022-10-16T01:21:33;17.90;99.90
20102;DHT22;10210;52.284;9.892;2022-10-16T01:27:14;17.80;99.90
20102;DHT22;10210;52.284;9.892;2022-10-16T01:35:18;17.70;99.90
20102;DHT22;10210;52.284;9.892;2022-10-16T01:40:34;17.70;99.90
20102;DHT22;10210;52.284;9.892;2022-10-16T01:43:07;17.70;99.90
20102;DHT22;10210;52.284;9.892;2022-10-16T01:45:36;17.70;99.90
20102;DHT22;10210;52.284;9.892;2022-10-16T01:48:03;17.60;99.90
20102;DHT22;10210;52.284;9.892;2022-10-16T01:50:36;17.70;99.90
20102;DHT22;10210;52.284;9.892;2022-10-16T01:53:05;17.70;99.90
20102;DHT22;10210;52.284;9.892;2022-10-16T01:55:39;17.60;99.90
20102;DHT22;10210;52.284;9.892;2022-10-16T01:58:12;17.60;99.90
20102;DHT22;10210;52.284;9.892;2022-10-16T02:00:42;17.60;99.90
20102;DHT22;10210;52.284;9.892;2022-10-16T02:03:11;17.60;99.90
20102;DHT22;10210;52.284;9.892;2022-10-16T02:05:55;17.60;99.90
20102;DHT22;10210;52.284;9.892;2022-10-16T02:08:24;17.60;99.90
20102;DHT22;10210;52.284;9.892;2022-10-16T02:10:55;17.60;99.90
20102;DHT22;10210;52.284;9.892;2022-10-16T02:13:45;17.60;99.90
20102;DHT22;10210;52.284;9.892;2022-10-16T02:16:16;17.60;99.90
20102;DHT22;10210;52.284;9.892;2022-10-16T02:18:43;17.60;99.90
20102;DHT22;10210;52.284;9.892;2022-10-16T02:21:26;17.60;99.90
20102;DHT22;10210;52.284;9.892;2022-10-16T02:26:49;17.50;99.90
20102;DHT22;10210;52.284;9.892;2022-10-16T02:29:40;17.50;99.90
20102;DHT22;10210;52.284;9.892;2022-10-16T02:32:12;17.60;99.90
20102;DHT22;10210;52.284;9.892;2022-10-16T02:34:42;17.60;99.90
20102;DHT22;10210;52.284;9.892;2022-10-16T02:37:10;17.50;99.90
20102;DHT22;10210;52.284;9.892;2022-10-16T02:39:37;17.60;99.90
20102;DHT22;10210;52.284;9.892;2022-10-16T02:42:04;17.60;99.90
20102;DHT22;10210;52.284;9.892;2022-10-16T02:44:29;17.60;99.90
20102;DHT22;10210;52.284;9.892;2022-10-16T02:46:55;17.60;99.90
20102;DHT22;10210;52.284;9.892;2022-10-16T02:49:21;17.60;99.90
20102;DHT22;10210;52.284;9.892;2022-10-16T02:51:46;17.60;99.90
20102;DHT22;10210;52.284;9.892;2022-10-16T02:54:12;17.60;99.90
20102;DHT22;10210;52.284;9.892;2022-10-16T02:56:38;17.50;99.90
20102;DHT22;10210;52.284;9.892;2022-10-16T02:59:04;17.50;99.90
20102;DHT22;10210;52.284;9.892;2022-10-16T03:01:29;17.50;99.90
20102;DHT22;10210;52.284;9.892;2022-10-16T03:03:55;17.50;99.90
20102;DHT22;10210;52.284;9.892;2022-10-16T03:06:21;17.40;99.90
20102;DHT22;10210;52.284;9.892;2022-10-16T03:08:47;17.40;99.90
20102;DHT22;10210;52.284;9.892;2022-10-16T03:11:12;17.40;99.90
20102;DHT22;10210;52.284;9.892;2022-10-16T03:13:38;17.40;99.90
20102;DHT22;10210;52.284;9.892;2022-10-16T03:16:04;17.40;99.90
20102;DHT22;10210;52.284;9.892;2022-10-16T03:18:29;17.40;99.90
20102;DHT22;10210;52.284;9.892;2022-10-16T03:20:55;17.30;99.90
20102;DHT22;10210;52.284;9.892;2022-10-16T03:23:21;17.30;99.90
20102;DHT22;10210;52.284;9.892;2022-10-16T03:25:46;17.30;99.90
20102;DHT22;10210;52.284;9.892;2022-10-16T03:28:12;17.30;99.90
20102;DHT22;10210;52.284;9.892;2022-10-16T03:30:38;17.30;99.90
20102;DHT22;10210;52.284;9.892;2022-10-16T03:33:05;17.30;99.90
20102;DHT22;10210;52.284;9.892;2022-10-16T03:35:31;17.30;99.90
20102;DHT22;10210;52.284;9.892;2022-10-16T03:37:58;17.20;99.90
20102;DHT22;10210;52.284;9.892;2022-10-16T03:40:23;17.20;99.90
20102;DHT22;10210;52.284;9.892;2022-10-16T03:42:49;17.20;99.90
20102;DHT22;10210;52.284;9.892;2022-10-16T03:45:15;17.20;99.90
20102;DHT22;10210;52.284;9.892;2022-10-16T03:47:41;17.10;99.90
20102;DHT22;10210;52.284;9.892;2022-10-16T03:50:07;17.10;99.90
20102;DHT22;10210;52.284;9.892;2022-10-16T03:52:33;17.10;99.90
20102;DHT22;10210;52.284;9.892;2022-10-16T03:54:59;17.10;99.90
20102;DHT22;10210;52.284;9.892;2022-10-16T03:57:25;17.10;99.90
20102;DHT22;10210;52.284;9.892;2022-10-16T03:59:50;17.00;99.90
20102;DHT22;10210;52.284;9.892;2022-10-16T04:02:16;17.00;99.90
20102;DHT22;10210;52.284;9.892;2022-10-16T04:04:42;17.00;99.90
20102;DHT22;10210;52.284;9.892;2022-10-16T04:07:07;17.00;99.90
20102;DHT22;10210;52.284;9.892;2022-10-16T04:09:33;17.00;99.90
20102;DHT22;10210;52.284;9.892;2022-10-16T04:11:59;17.00;99.90
20102;DHT22;10210;52.284;9.892;2022-10-16T04:14:25;16.90;99.90
20102;DHT22;10210;52.284;9.892;2022-10-16T04:16:50;16.90;99.90
20102;DHT22;10210;52.284;9.892;2022-10-16T04:19:16;16.90;99.90
20102;DHT22;10210;52.284;9.892;2022-10-16T04:21:42;16.90;99.90
20102;DHT22;10210;52.284;9.892;2022-10-16T04:24:07;16.90;99.90
20102;DHT22;10210;52.284;9.892;2022-10-16T04:26:33;16.90;99.90
20102;DHT22;10210;52.284;9.892;2022-10-16T04:28:59;16.90;99.90
20102;DHT22;10210;52.284;9.892;2022-10-16T04:31:24;16.90;99.90
20102;DHT22;10210;52.284;9.892;2022-10-16T04:33:50;16.90;99.90
20102;DHT22;10210;52.284;9.892;2022-10-16T04:36:16;16.90;99.90
20102;DHT22;10210;52.284;9.892;2022-10-16T04:38:41;16.90;99.90
20102;DHT22;10210;52.284;9.892;2022-10-16T04:41:07;16.90;99.90
20102;DHT22;10210;52.284;9.892;2022-10-16T04:43:34;16.90;99.90
20102;DHT22;10210;52.284;9.892;2022-10-16T04:46:00;16.90;99.90
20102;DHT22;10210;52.284;9.892;2022-10-16T04:48:27;16.90;99.90
20102;DHT22;10210;52.284;9.892;2022-10-16T04:50:53;16.90;99.90
20102;DHT22;10210;52.284;9.892;2022-10-16T04:53:19;16.90;99.90
20102;DHT22;10210;52.284;9.892;2022-10-16T04:55:45;16.90;99.90
20102;DHT22;10210;52.284;9.892;2022-10-16T04:58:11;16.90;99.90
20102;DHT22;10210;52.284;9.892;2022-10-16T05:00:36;16.90;99.90
20102;DHT22;10210;52.284;9.892;2022-10-16T05:03:03;16.90;99.90
20102;DHT22;10210;52.284;9.892;2022-10-16T05:05:33;16.90;99.90
20102;DHT22;10210;52.284;9.892;2022-10-16T05:07:59;16.90;99.90
20102;DHT22;10210;52.284;9.892;2022-10-16T05:10:24;17.00;99.90
20102;DHT22;10210;52.284;9.892;2022-10-16T05:12:50;17.00;99.90
20102;DHT22;10210;52.284;9.892;2022-10-16T05:15:17;17.00;99.90
20102;DHT22;10210;52.284;9.892;2022-10-16T05:17:43;17.00;99.90
20102;DHT22;10210;52.284;9.892;2022-10-16T05:20:09;17.00;99.90
20102;DHT22;10210;52.284;9.892;2022-10-16T05:22:35;17.00;99.90
20102;DHT22;10210;52.284;9.892;2022-10-16T05:25:01;17.00;99.90
20102;DHT22;10210;52.284;9.892;2022-10-16T05:27:28;17.10;99.90
20102;DHT22;10210;52.284;9.892;2022-10-16T05:29:54;17.10;99.90
20102;DHT22;10210;52.284;9.892;2022-10-16T05:32:20;17.10;99.90
20102;DHT22;10210;52.284;9.892;2022-10-16T05:34:45;17.00;99.90
20102;DHT22;10210;52.284;9.892;2022-10-16T05:37:12;17.10;99.90
20102;DHT22;10210;52.284;9.892;2022-10-16T05:39:38;17.10;99.90
20102;DHT22;10210;52.284;9.892;2022-10-16T05:42:05;17.10;99.90
20102;DHT22;10210;52.284;9.892;2022-10-16T05:44:31;17.10;99.90
20102;DHT22;10210;52.284;9.892;2022-10-16T05:46:56;17.00;99.90
20102;DHT22;10210;52.284;9.892;2022-10-16T05:49:22;17.00;99.90
20102;DHT22;10210;52.284;9.892;2022-10-16T05:51:48;17.00;99.90
20102;DHT22;10210;52.284;9.892;2022-10-16T05:54:14;17.00;99.90
20102;DHT22;10210;52.284;9.892;2022-10-16T05:56:39;17.00;99.90
20102;DHT22;10210;52.284;9.892;2022-10-16T05:59:05;17.00;99.90
20102;DHT22;10210;52.284;9.892;2022-10-16T06:01:32;17.00;99.90
20102;DHT22;10210;52.284;9.892;2022-10-16T06:03:57;17.00;99.90
20102;DHT22;10210;52.284;9.892;2022-10-16T06:06:26;17.00;99.90
20102;DHT22;10210;52.284;9.892;2022-10-16T06:08:55;16.90;99.90
20102;DHT22;10210;52.284;9.892;2022-10-16T06:11:25;16.90;99.90
20102;DHT22;10210;52.284;9.892;2022-10-16T06:13:55;16.90;99.90
20102;DHT22;10210;52.284;9.892;2022-10-16T06:16:24;16.90;99.90
20102;DHT22;10210;52.284;9.892;2022-10-16T06:18:52;16.80;99.90
20102;DHT22;10210;52.284;9.892;2022-10-16T06:21:20;16.80;99.90
20102;DHT22;10210;52.284;9.892;2022-10-16T06:23:50;16.80;99.90
20102;DHT22;10210;52.284;9.892;2022-10-16T06:26:18;16.80;99.90
20102;DHT22;10210;52.284;9.892;2022-10-16T06:28:45;16.80;99.90
20102;DHT22;10210;52.284;9.892;2022-10-16T06:31:12;16.70;99.90
20102;DHT22;10210;52.284;9.892;2022-10-16T06:33:39;16.70;99.90
20102;DHT22;10210;52.284;9.892;2022-10-16T06:36:11;16.80;99.90
20102;DHT22;10210;52.284;9.892;2022-10-16T06:38:38;16.70;99.90
20102;DHT22;10210;52.284;9.892;2022-10-16T06:41:05;16.80;99.90
20102;DHT22;10210;52.284;9.892;2022-10-16T06:43:32;16.80;99.90
20102;DHT22;10210;52.284;9.892;2022-10-16T06:46:01;16.80;99.90
20102;DHT22;10210;52.284;9.892;2022-10-16T06:48:29;16.80;99.90
20102;DHT22;10210;52.284;9.892;2022-10-16T06:51:32;16.80;99.90
20102;DHT22;10210;52.284;9.892;2022-10-16T06:53:53;16.90;99.90
20102;DHT22;10210;52.284;9.892;2022-10-16T06:56:26;16.90;99.90
20102;DHT22;10210;52.284;9.892;2022-10-16T06:58:56;16.90;99.90
20102;DHT22;10210;52.284;9.892;2022-10-16T07:01:23;17.00;99.90
20102;DHT22;10210;52.284;9.892;2022-10-16T07:03:50;17.00;99.90
20102;DHT22;10210;52.284;9.892;2022-10-16T07:06:18;17.00;99.90
20102;DHT22;10210;52.284;9.892;2022-10-16T07:08:46;17.00;99.90
20102;DHT22;10210;52.284;9.892;2022-10-16T07:11:18;17.10;99.90
20102;DHT22;10210;52.284;9.892;2022-10-16T07:13:46;17.10;99.90
20102;DHT22;10210;52.284;9.892;2022-10-16T07:16:18;17.20;99.90
20102;DHT22;10210;52.284;9.892;2022-10-16T07:18:46;17.20;99.90
20102;DHT22;10210;52.284;9.892;2022-10-16T07:21:16;17.20;99.90
20102;DHT22;10210;52.284;9.892;2022-10-16T07:23:45;17.30;99.90
20102;DHT22;10210;52.284;9.892;2022-10-16T07:26:11;17.40;99.90
20102;DHT22;10210;52.284;9.892;2022-10-16T07:28:37;17.40;99.90
20102;DHT22;10210;52.284;9.892;2022-10-16T07:31:07;17.40;99.90
20102;DHT22;10210;52.284;9.892;2022-10-16T07:33:37;17.40;99.90
20102;DHT22;10210;52.284;9.892;2022-10-16T07:36:04;17.50;99.90
20102;DHT22;10210;52.284;9.892;2022-10-16T07:38:30;17.60;99.90
20102;DHT22;10210;52.284;9.892;2022-10-16T07:41:01;17.60;99.90
20102;DHT22;10210;52.284;9.892;2022-10-16T07:43:29;17.60;99.90
20102;DHT22;10210;52.284;9.892;2022-10-16T07:45:56;17.60;99.90
20102;DHT22;10210;52.284;9.892;2022-10-16T07:48:23;17.70;99.90
20102;DHT22;10210;52.284;9.892;2022-10-16T07:50:51;17.60;99.90
20102;DHT22;10210;52.284;9.892;2022-10-16T07:53:17;17.70;99.90
20102;DHT22;10210;52.284;9.892;2022-10-16T07:55:43;17.70;99.90
20102;DHT22;10210;52.284;9.892;2022-10-16T07:58:09;17.70;99.90
20102;DHT22;10210;52.284;9.892;2022-10-16T08:00:37;17.80;99.90
20102;DHT22;10210;52.284;9.892;2022-10-16T08:03:03;17.80;99.90
20102;DHT22;10210;52.284;9.892;2022-10-16T08:05:30;17.90;99.90
20102;DHT22;10210;52.284;9.892;2022-10-16T08:07:58;17.90;99.90
20102;DHT22;10210;52.284;9.892;2022-10-16T08:10:25;17.90;99.90
20102;DHT22;10210;52.284;9.892;2022-10-16T08:12:53;18.00;99.90
20102;DHT22;10210;52.284;9.892;2022-10-16T08:15:19;18.00;99.90
20102;DHT22;10210;52.284;9.892;2022-10-16T08:17:55;18.10;99.90
20102;DHT22;10210;52.284;9.892;2022-10-16T08:20:25;18.10;99.90
20102;DHT22;10210;52.284;9.892;2022-10-16T08:22:51;18.20;99.90
20102;DHT22;10210;52.284;9.892;2022-10-16T08:25:17;18.30;99.90
20102;DHT22;10210;52.284;9.892;2022-10-16T08:27:43;18.40;99.90
20102;DHT22;10210;52.284;9.892;2022-10-16T08:30:10;18.50;99.90
20102;DHT22;10210;52.284;9.892;2022-10-16T08:32:36;18.60;99.90
20102;DHT22;10210;52.284;9.892;2022-10-16T08:35:02;18.70;99.90
20102;DHT22;10210;52.284;9.892;2022-10-16T08:37:32;18.90;99.90
20102;DHT22;10210;52.284;9.892;2022-10-16T08:39:58;19.00;99.90
20102;DHT22;10210;52.284;9.892;2022-10-16T08:50:50;20.00;99.90
20102;DHT22;10210;52.284;9.892;2022-10-16T08:53:31;20.10;99.90
20102;DHT22;10210;52.284;9.892;2022-10-16T08:56:03;20.20;99.90
20102;DHT22;10210;52.284;9.892;2022-10-16T08:58:30;20.20;99.90
20102;DHT22;10210;52.284;9.892;2022-10-16T09:01:02;20.20;99.90
20102;DHT22;10210;52.284;9.892;2022-10-16T09:06:40;20.10;99.90
20102;DHT22;10210;52.284;9.892;2022-10-16T09:12:00;20.00;99.90
20102;DHT22;10210;52.284;9.892;2022-10-16T09:17:39;20.00;99.90
20102;DHT22;10210;52.284;9.892;2022-10-16T09:20:38;20.20;99.90
20102;DHT22;10210;52.284;9.892;2022-10-16T09:23:21;20.40;99.90
20102;DHT22;10210;52.284;9.892;2022-10-16T09:25:52;20.60;99.90
20102;DHT22;10210;52.284;9.892;2022-10-16T09:28:20;20.80;99.90
20102;DHT22;10210;52.284;9.892;2022-10-16T09:30:46;21.00;99.90
20102;DHT22;10210;52.284;9.892;2022-10-16T09:33:17;21.30;99.90
20102;DHT22;10210;52.284;9.892;2022-10-16T09:35:50;21.50;99.90
20102;DHT22;10210;52.284;9.892;2022-10-16T09:38:36;21.70;99.90
20102;DHT22;10210;52.284;9.892;2022-10-16T09:41:29;21.90;99.90
20102;DHT22;10210;52.284;9.892;2022-10-16T09:44:00;22.10;99.90
20102;DHT22;10210;52.284;9.892;2022-10-16T09:46:36;22.20;99.90
20102;DHT22;10210;52.284;9.892;2022-10-16T09:49:24;22.30;99.90
20102;DHT22;10210;52.284;9.892;2022-10-16T09:52:02;22.40;99.90
20102;DHT22;10210;52.284;9.892;2022-10-16T09:54:30;22.40;99.90
20102;DHT22;10210;52.284;9.892;2022-10-16T09:57:07;22.50;99.90
20102;DHT22;10210;52.284;9.892;2022-10-16T09:59:49;22.50;99.90
20102;DHT22;10210;52.284;9.892;2022-10-16T10:02:39;22.50;99.90
20102;DHT22;10210;52.284;9.892;2022-10-16T10:05:16;22.40;99.90
20102;DHT22;10210;52.284;9.892;2022-10-16T10:07:58;22.40;99.90
20102;DHT22;10210;52.284;9.892;2022-10-16T10:10:32;22.40;99.90
20102;DHT22;10210;52.284;9.892;2022-10-16T10:13:02;22.30;99.90
20102;DHT22;10210;52.284;9.892;2022-10-16T10:15:34;22.30;99.90
20102;DHT22;10210;52.284;9.892;2022-10-16T10:18:01;22.20;99.90
20102;DHT22;10210;52.284;9.892;2022-10-16T10:20:33;22.20;99.90
20102;DHT22;10210;52.284;9.892;2022-10-16T10:23:24;22.20;99.90
20102;DHT22;10210;52.284;9.892;2022-10-16T10:28:43;22.00;99.90
20102;DHT22;10210;52.284;9.892;2022-10-16T10:43:54;21.60;99.90
20102;DHT22;10210;52.284;9.892;2022-10-16T10:52:12;21.30;99.90
20102;DHT22;10210;52.284;9.892;2022-10-16T10:57:44;21.20;99.90
20102;DHT22;10210;52.284;9.892;2022-10-16T11:00:51;21.10;99.90
20102;DHT22;10210;52.284;9.892;2022-10-16T11:03:59;21.10;99.90
20102;DHT22;10210;52.284;9.892;2022-10-16T11:06:52;21.00;99.90
20102;DHT22;10210;52.284;9.892;2022-10-16T11:09:25;20.90;99.90
20102;DHT22;10210;52.284;9.892;2022-10-16T11:17:54;20.80;99.90
20102;DHT22;10210;52.284;9.892;2022-10-16T11:20:37;20.70;99.90
20102;DHT22;10210;52.284;9.892;2022-10-16T11:23:28;20.70;99.90
20102;DHT22;10210;52.284;9.892;2022-10-16T11:26:04;20.80;99.90
20102;DHT22;10210;52.284;9.892;2022-10-16T11:28:50;20.80;99.90
20102;DHT22;10210;52.284;9.892;2022-10-16T11:31:46;20.90;99.90
20102;DHT22;10210;52.284;9.892;2022-10-16T11:34:26;21.00;99.90
20102;DHT22;10210;52.284;9.892;2022-10-16T11:37:01;21.10;99.90
20102;DHT22;10210;52.284;9.892;2022-10-16T11:39:31;21.10;99.90
20102;DHT22;10210;52.284;9.892;2022-10-16T11:42:17;21.20;99.90
20102;DHT22;10210;52.284;9.892;2022-10-16T11:45:11;21.20;99.90
20102;DHT22;10210;52.284;9.892;2022-10-16T11:50:48;21.10;99.90
20102;DHT22;10210;52.284;9.892;2022-10-16T11:56:15;21.10;99.90
20102;DHT22;10210;52.284;9.892;2022-10-16T12:04:22;21.10;99.90
20102;DHT22;10210;52.284;9.892;2022-10-16T12:07:04;21.20;99.90
20102;DHT22;10210;52.284;9.892;2022-10-16T12:09:38;21.30;99.90
20102;DHT22;10210;52.284;9.892;2022-10-16T12:12:25;21.30;99.90
20102;DHT22;10210;52.284;9.892;2022-10-16T12:17:49;21.50;99.90
20102;DHT22;10210;52.284;9.892;2022-10-16T12:20:30;21.50;99.90
20102;DHT22;10210;52.284;9.892;2022-10-16T12:22:59;21.60;99.90
20102;DHT22;10210;52.284;9.892;2022-10-16T12:25:37;21.70;99.90
20102;DHT22;10210;52.284;9.892;2022-10-16T12:30:41;21.90;99.90
20102;DHT22;10210;52.284;9.892;2022-10-16T12:33:26;22.00;99.90
20102;DHT22;10210;52.284;9.892;2022-10-16T12:35:54;22.10;99.90
20102;DHT22;10210;52.284;9.892;2022-10-16T12:41:44;22.20;99.90
20102;DHT22;10210;52.284;9.892;2022-10-16T12:44:25;22.30;99.90
20102;DHT22;10210;52.284;9.892;2022-10-16T12:46:54;22.40;99.90
20102;DHT22;10210;52.284;9.892;2022-10-16T12:49:37;22.40;99.90
20102;DHT22;10210;52.284;9.892;2022-10-16T12:52:22;22.40;99.90
20102;DHT22;10210;52.284;9.892;2022-10-16T12:55:03;22.50;99.90
20102;DHT22;10210;52.284;9.892;2022-10-16T13:06:38;22.70;99.90
20102;DHT22;10210;52.284;9.892;2022-10-16T13:09:19;22.70;99.90
20102;DHT22;10210;52.284;9.892;2022-10-16T13:12:30;22.70;99.90
20102;DHT22;10210;52.284;9.892;2022-10-16T13:15:39;22.80;99.90
20102;DHT22;10210;52.284;9.892;2022-10-16T13:21:24;22.80;99.90
20102;DHT22;10210;52.284;9.892;2022-10-16T13:29:32;22.90;99.90
20102;DHT22;10210;52.284;9.892;2022-10-16T13:32:01;23.00;99.90
20102;DHT22;10210;52.284;9.892;2022-10-16T13:34:41;23.00;99.90
20102;DHT22;10210;52.284;9.892;2022-10-16T13:37:20;23.10;99.90
20102;DHT22;10210;52.284;9.892;2022-10-16T13:39:47;23.10;99.90
20102;DHT22;10210;52.284;9.892;2022-10-16T13:42:24;23.10;99.90
20102;DHT22;10210;52.284;9.892;2022-10-16T13:44:55;23.10;99.90
20102;DHT22;10210;52.284;9.892;2022-10-16T13:47:22;23.20;99.90
20102;DHT22;10210;52.284;9.892;2022-10-16T13:50:06;23.20;99.90
20102;DHT22;10210;52.284;9.892;2022-10-16T13:52:37;23.20;99.90
20102;DHT22;10210;52.284;9.892;2022-10-16T13:55:14;23.30;99.90
20102;DHT22;10210;52.284;9.892;2022-10-16T13:57:42;23.30;99.90
20102;DHT22;10210;52.284;9.892;2022-10-16T14:02:51;23.30;99.90
20102;DHT22;10210;52.284;9.892;2022-10-16T14:05:22;23.40;99.90
20102;DHT22;10210;52.284;9.892;2022-10-16T14:07:50;23.40;99.90
20102;DHT22;10210;52.284;9.892;2022-10-16T14:10:25;23.40;99.90
20102;DHT22;10210;52.284;9.892;2022-10-16T14:13:04;23.40;99.90
20102;DHT22;10210;52.284;9.892;2022-10-16T14:15:34;23.30;99.90
20102;DHT22;10210;52.284;9.892;2022-10-16T14:18:02;23.30;99.90
20102;DHT22;10210;52.284;9.892;2022-10-16T14:20:32;23.30;99.90
20102;DHT22;10210;52.284;9.892;2022-10-16T14:23:04;23.30;99.90
20102;DHT22;10210;52.284;9.892;2022-10-16T14:25:44;23.30;99.90
20102;DHT22;10210;52.284;9.892;2022-10-16T14:30:53;23.30;99.90
20102;DHT22;10210;52.284;9.892;2022-10-16T14:38:35;23.30;99.90
20102;DHT22;10210;52.284;9.892;2022-10-16T14:41:03;23.30;99.90
20102;DHT22;10210;52.284;9.892;2022-10-16T14:43:37;23.30;99.90
20102;DHT22;10210;52.284;9.892;2022-10-16T14:46:13;23.20;99.90
20102;DHT22;10210;52.284;9.892;2022-10-16T14:48:42;23.30;99.90
20102;DHT22;10210;52.284;9.892;2022-10-16T14:51:20;23.20;99.90
20102;DHT22;10210;52.284;9.892;2022-10-16T14:53:46;23.20;99.90
20102;DHT22;10210;52.284;9.892;2022-10-16T14:56:23;23.20;99.90
20102;DHT22;10210;52.284;9.892;2022-10-16T14:58:51;23.20;99.90
20102;DHT22;10210;52.284;9.892;2022-10-16T15:01:17;23.10;99.90
20102;DHT22;10210;52.284;9.892;2022-10-16T15:03:43;23.10;99.90
20102;DHT22;10210;52.284;9.892;2022-10-16T15:06:11;23.10;99.90
20102;DHT22;10210;52.284;9.892;2022-10-16T15:08:38;23.10;99.90
20102;DHT22;10210;52.284;9.892;2022-10-16T15:11:04;23.10;99.90
20102;DHT22;10210;52.284;9.892;2022-10-16T15:13:31;23.10;99.90
20102;DHT22;10210;52.284;9.892;2022-10-16T15:15:57;23.10;99.90
20102;DHT22;10210;52.284;9.892;2022-10-16T15:18:23;23.10;99.90
20102;DHT22;10210;52.284;9.892;2022-10-16T15:20:50;23.10;99.90
20102;DHT22;10210;52.284;9.892;2022-10-16T15:23:21;23.10;99.90
20102;DHT22;10210;52.284;9.892;2022-10-16T15:28:20;23.10;99.90
20102;DHT22;10210;52.284;9.892;2022-10-16T15:30:49;23.10;99.90
20102;DHT22;10210;52.284;9.892;2022-10-16T15:33:25;23.10;99.90
20102;DHT22;10210;52.284;9.892;2022-10-16T15:35:54;23.10;99.90
20102;DHT22;10210;52.284;9.892;2022-10-16T15:38:21;23.10;99.90
20102;DHT22;10210;52.284;9.892;2022-10-16T15:40:48;23.10;99.90
20102;DHT22;10210;52.284;9.892;2022-10-16T15:43:15;23.00;99.90
20102;DHT22;10210;52.284;9.892;2022-10-16T15:45:40;23.10;99.90
20102;DHT22;10210;52.284;9.892;2022-10-16T15:48:12;23.00;99.90
20102;DHT22;10210;52.284;9.892;2022-10-16T15:50:39;23.00;99.90
20102;DHT22;10210;52.284;9.892;2022-10-16T15:53:05;22.90;99.90
20102;DHT22;10210;52.284;9.892;2022-10-16T15:55:31;22.90;99.90
20102;DHT22;10210;52.284;9.892;2022-10-16T15:57:57;22.80;99.90
20102;DHT22;10210;52.284;9.892;2022-10-16T16:00:22;22.80;99.90
20102;DHT22;10210;52.284;9.892;2022-10-16T16:02:52;22.70;99.90
20102;DHT22;10210;52.284;9.892;2022-10-16T16:05:20;22.70;99.90
20102;DHT22;10210;52.284;9.892;2022-10-16T16:07:47;22.70;99.90
20102;DHT22;10210;52.284;9.892;2022-10-16T16:10:13;22.60;99.90
20102;DHT22;10210;52.284;9.892;2022-10-16T16:12:39;22.60;99.90
20102;DHT22;10210;52.284;9.892;2022-10-16T16:15:07;22.50;99.90
20102;DHT22;10210;52.284;9.892;2022-10-16T16:17:34;22.50;99.90
20102;DHT22;10210;52.284;9.892;2022-10-16T16:20:02;22.40;99.90
20102;DHT22;10210;52.284;9.892;2022-10-16T16:22:30;22.40;99.90
20102;DHT22;10210;52.284;9.892;2022-10-16T16:24:56;22.40;99.90
20102;DHT22;10210;52.284;9.892;2022-10-16T16:27:22;22.30;99.90
20102;DHT22;10210;52.284;9.892;2022-10-16T16:29:50;22.20;99.90
20102;DHT22;10210;52.284;9.892;2022-10-16T16:32:15;22.10;99.90
20102;DHT22;10210;52.284;9.892;2022-10-16T16:34:41;22.00;99.90
20102;DHT22;10210;52.284;9.892;2022-10-16T16:37:07;21.90;99.90
20102;DHT22;10210;52.284;9.892;2022-10-16T16:39:33;21.80;99.90
20102;DHT22;10210;52.284;9.892;2022-10-16T16:41:59;21.80;99.90
20102;DHT22;10210;52.284;9.892;2022-10-16T16:44:25;21.70;99.90
20102;DHT22;10210;52.284;9.892;2022-10-16T16:46:51;21.60;99.90
20102;DHT22;10210;52.284;9.892;2022-10-16T16:49:18;21.40;99.90
20102;DHT22;10210;52.284;9.892;2022-10-16T16:51:43;21.40;99.90
20102;DHT22;10210;52.284;9.892;2022-10-16T16:54:10;21.30;99.90
20102;DHT22;10210;52.284;9.892;2022-10-16T16:56:38;21.20;99.90
20102;DHT22;10210;52.284;9.892;2022-10-16T16:59:04;21.10;99.90
20102;DHT22;10210;52.284;9.892;2022-10-16T17:01:30;21.10;99.90
20102;DHT22;10210;52.284;9.892;2022-10-16T17:03:57;21.00;99.90
20102;DHT22;10210;52.284;9.892;2022-10-16T17:06:27;21.00;99.90
20102;DHT22;10210;52.284;9.892;2022-10-16T17:08:55;20.90;99.90
20102;DHT22;10210;52.284;9.892;2022-10-16T17:11:23;20.90;99.90
20102;DHT22;10210;52.284;9.892;2022-10-16T17:13:52;20.90;99.90
20102;DHT22;10210;52.284;9.892;2022-10-16T17:16:21;20.90;99.90
20102;DHT22;10210;52.284;9.892;2022-10-16T17:18:47;20.90;99.90
20102;DHT22;10210;52.284;9.892;2022-10-16T17:21:13;20.90;99.90
20102;DHT22;10210;52.284;9.892;2022-10-16T17:23:39;20.90;99.90
20102;DHT22;10210;52.284;9.892;2022-10-16T17:26:11;20.90;99.90
20102;DHT22;10210;52.284;9.892;2022-10-16T17:28:39;20.90;99.90
20102;DHT22;10210;52.284;9.892;2022-10-16T17:31:09;20.90;99.90
20102;DHT22;10210;52.284;9.892;2022-10-16T17:33:37;20.90;99.90
20102;DHT22;10210;52.284;9.892;2022-10-16T17:36:04;20.90;99.90
20102;DHT22;10210;52.284;9.892;2022-10-16T17:38:30;21.00;99.90
20102;DHT22;10210;52.284;9.892;2022-10-16T17:40:57;21.00;99.90
20102;DHT22;10210;52.284;9.892;2022-10-16T17:43:23;21.00;99.90
20102;DHT22;10210;52.284;9.892;2022-10-16T17:45:49;21.00;99.90